createdAt,value
2022-07-26T00:02:51.757Z,88.97
2022-07-26T00:08:10.823Z,88.23
2022-07-26T00:13:17.397Z,88.75
2022-07-26T00:18:22.070Z,88.98
2022-07-26T00:23:25.148Z,89.14
2022-07-26T00:28:29.484Z,90.14
2022-07-26T00:33:32.542Z,90.15
2022-07-26T00:38:35.890Z,90.37
2022-07-26T00:43:53.761Z,90.37
2022-07-26T00:48:56.798Z,91.05
2022-07-26T00:53:59.805Z,91.56
2022-07-26T00:59:04.727Z,91.67
2022-07-26T01:04:08.741Z,92.14
2022-07-26T01:09:13.332Z,91.86
2022-07-26T01:14:20.620Z,93.02
2022-07-26T01:19:24.141Z,92.86
2022-07-26T01:24:28.438Z,94.19
2022-07-26T01:29:34.907Z,93.73
2022-07-26T01:34:39.556Z,95.92
2022-07-26T01:39:45.767Z,95.75
2022-07-26T01:44:48.700Z,95.41
2022-07-26T01:49:51.678Z,96.21
2022-07-26T01:54:55.969Z,95.42
2022-07-26T01:59:58.944Z,94.15
2022-07-26T02:05:02.098Z,94.03
2022-07-26T02:10:06.980Z,93.49
2022-07-26T02:15:11.454Z,92.69
2022-07-26T02:20:17.087Z,93.01
2022-07-26T02:25:21.595Z,93.12
2022-07-26T02:30:24.734Z,92.90
2022-07-26T02:35:27.739Z,93.80
2022-07-26T02:40:32.341Z,94.72
2022-07-26T02:45:35.339Z,95.60
2022-07-26T02:50:38.306Z,97.96
2022-07-26T02:55:42.604Z,99.18
2022-07-26T03:00:45.561Z,98.34
2022-07-26T03:05:48.510Z,98.32
2022-07-26T03:10:52.764Z,98.80
2022-07-26T03:15:55.787Z,97.76
2022-07-26T03:20:59.581Z,96.81
2022-07-26T03:26:04.433Z,97.22
2022-07-26T03:31:07.459Z,97.24
2022-07-26T03:36:15.429Z,97.75
2022-07-26T03:41:20.106Z,97.75
2022-07-26T03:46:23.191Z,97.14
2022-07-26T03:51:42.042Z,97.40
2022-07-26T03:56:46.296Z,97.95
2022-07-26T04:01:49.350Z,97.86
2022-07-26T04:06:53.507Z,98.61
2022-07-26T04:11:57.818Z,100.00
2022-07-26T04:17:00.837Z,100.00
2022-07-26T04:22:04.836Z,99.20
2022-07-26T04:27:09.110Z,98.58
2022-07-26T04:32:12.092Z,98.93
2022-07-26T04:37:15.049Z,99.47
2022-07-26T04:42:19.322Z,97.55
2022-07-26T04:47:22.237Z,96.59
2022-07-26T04:52:25.195Z,96.72
2022-07-26T04:57:29.451Z,96.14
2022-07-26T05:02:32.598Z,95.10
2022-07-26T05:07:40.750Z,95.21
2022-07-26T05:12:45.921Z,94.61
2022-07-26T05:17:48.886Z,93.62
2022-07-26T05:22:51.810Z,93.34
2022-07-26T05:27:56.148Z,93.31
2022-07-26T05:32:59.164Z,93.49
2022-07-26T05:38:02.146Z,92.73
2022-07-26T05:43:06.474Z,92.70
2022-07-26T05:48:09.497Z,92.71
2022-07-26T05:53:12.451Z,92.29
2022-07-26T05:58:16.750Z,91.86
2022-07-26T06:03:26.054Z,91.79
2022-07-26T06:08:29.037Z,92.37
2022-07-26T06:13:33.401Z,92.80
2022-07-26T06:18:36.349Z,92.43
2022-07-26T06:23:39.365Z,92.60
2022-07-26T06:28:44.142Z,92.33
2022-07-26T06:33:47.141Z,92.56
2022-07-26T06:38:50.144Z,93.55
2022-07-26T06:43:54.710Z,92.49
2022-07-26T06:48:57.801Z,91.55
2022-07-26T06:54:01.118Z,91.04
2022-07-26T06:59:09.390Z,90.86
2022-07-26T07:04:12.715Z,90.70
2022-07-26T07:09:15.722Z,88.84
2022-07-26T07:14:20.317Z,87.36
2022-07-26T07:19:23.338Z,84.03
2022-07-26T07:24:26.324Z,83.00
2022-07-26T07:29:30.759Z,82.04
2022-07-26T07:34:33.848Z,81.67
2022-07-26T07:39:38.746Z,79.98
2022-07-26T07:44:43.242Z,78.77
2022-07-26T07:49:46.203Z,78.96
2022-07-26T07:54:49.171Z,79.51
2022-07-26T07:59:53.535Z,79.73
2022-07-26T08:05:00.459Z,79.28
2022-07-26T08:10:14.413Z,79.50
2022-07-26T08:15:19.436Z,79.68
2022-07-26T08:20:23.652Z,79.16
2022-07-26T08:25:28.011Z,79.85
2022-07-26T08:30:32.667Z,79.90
2022-07-26T08:35:35.704Z,79.78
2022-07-26T08:40:39.159Z,79.20
2022-07-26T08:45:45.708Z,79.49
2022-07-26T08:50:48.943Z,77.62
2022-07-26T08:56:06.920Z,77.84
2022-07-26T09:01:13.433Z,77.21
2022-07-26T09:06:17.721Z,76.25
2022-07-26T09:11:28.240Z,75.84
2022-07-26T09:16:36.026Z,75.98
2022-07-26T09:21:41.959Z,73.90
2022-07-26T09:26:55.954Z,74.13
2022-07-26T09:32:19.502Z,72.01
2022-07-26T09:37:35.821Z,70.62
2022-07-26T09:42:39.644Z,70.04
2022-07-26T09:47:44.227Z,68.01
2022-07-26T09:53:03.778Z,67.58
2022-07-26T09:58:06.738Z,68.00
2022-07-26T10:03:11.213Z,66.78
2022-07-26T10:08:14.320Z,63.24
2022-07-26T10:13:17.535Z,53.82
2022-07-26T10:18:40.630Z,61.07
2022-07-26T10:23:45.860Z,53.10
2022-07-26T10:28:48.898Z,52.14
2022-07-26T10:33:52.764Z,57.06
2022-07-26T10:39:00.780Z,57.72
2022-07-26T10:44:24.393Z,59.35
2022-07-26T10:49:31.366Z,60.28
2022-07-26T10:54:55.727Z,62.15
2022-07-26T10:59:59.125Z,63.15
2022-07-26T11:05:02.556Z,63.50
2022-07-26T11:10:07.350Z,63.91
2022-07-26T11:15:17.229Z,64.34
2022-07-26T11:20:29.574Z,62.29
2022-07-26T11:25:34.439Z,60.81
2022-07-26T11:30:37.495Z,60.61
2022-07-26T11:35:51.191Z,60.58
2022-07-26T11:40:55.628Z,62.03
2022-07-26T11:45:58.687Z,63.79
2022-07-26T11:51:09.532Z,65.62
2022-07-26T11:56:18.122Z,64.84
2022-07-26T12:01:21.796Z,65.62
2022-07-26T12:06:26.225Z,65.50
2022-07-26T12:11:40.286Z,65.57
2022-07-26T12:16:44.619Z,66.92
2022-07-26T12:21:48.889Z,68.38
2022-07-26T12:27:06.180Z,68.74
2022-07-26T12:32:12.714Z,72.23
2022-07-26T12:37:17.533Z,78.23
2022-07-26T12:42:34.632Z,81.63
2022-07-26T12:47:38.436Z,85.04
2022-07-26T12:52:41.974Z,87.98
2022-07-26T12:57:47.272Z,89.07
2022-07-26T13:02:51.294Z,89.97
2022-07-26T13:07:54.389Z,92.02
2022-07-26T13:12:58.750Z,100.00
2022-07-26T13:18:02.085Z,100.00
2022-07-26T13:23:05.068Z,100.00
2022-07-26T13:28:09.768Z,100.00
2022-07-26T13:33:12.965Z,100.00
2022-07-26T13:38:19.172Z,100.00
2022-07-26T13:43:23.455Z,100.00
2022-07-26T13:48:26.469Z,100.00
2022-07-26T13:53:30.477Z,100.00
2022-07-26T13:58:34.805Z,100.00
2022-07-26T14:03:37.753Z,100.00
2022-07-26T14:08:40.716Z,100.00
2022-07-26T14:13:45.025Z,100.00
2022-07-26T14:18:48.157Z,100.00
2022-07-26T14:23:51.224Z,100.00
2022-07-26T14:28:55.654Z,100.00
2022-07-26T14:33:59.124Z,100.00
2022-07-26T14:39:02.071Z,100.00
2022-07-26T14:44:08.834Z,100.00
2022-07-26T14:49:12.099Z,100.00
2022-07-26T14:54:15.280Z,100.00
2022-07-26T14:59:19.743Z,100.00
2022-07-26T15:04:22.691Z,100.00
2022-07-26T15:09:25.628Z,100.00
2022-07-26T15:14:29.926Z,100.00
2022-07-26T15:19:32.943Z,100.00
2022-07-26T15:24:40.066Z,100.00
2022-07-26T15:29:44.788Z,100.00
2022-07-26T15:34:49.313Z,100.00
2022-07-26T15:39:54.664Z,100.00
2022-07-26T15:44:59.104Z,100.00
2022-07-26T15:50:03.008Z,100.00
2022-07-26T15:55:06.592Z,100.00
2022-07-26T16:00:12.281Z,100.00
2022-07-26T16:05:15.570Z,100.00
2022-07-26T16:10:18.676Z,100.00
2022-07-26T16:15:23.015Z,100.00
2022-07-26T16:20:26.071Z,100.00
2022-07-26T16:25:29.170Z,100.00
2022-07-26T16:30:33.539Z,100.00
2022-07-26T16:35:36.600Z,100.00
2022-07-26T16:40:39.604Z,100.00
2022-07-26T16:45:43.959Z,100.00
2022-07-26T16:50:46.962Z,100.00
2022-07-26T16:55:52.010Z,100.00
2022-07-26T17:00:56.456Z,100.00
2022-07-26T17:06:06.017Z,100.00
2022-07-26T17:11:09.555Z,100.00
2022-07-26T17:16:13.987Z,100.00
2022-07-26T17:21:17.011Z,100.00
2022-07-26T17:26:20.807Z,100.00
2022-07-26T17:31:25.177Z,100.00
2022-07-26T17:36:29.873Z,100.00
2022-07-26T17:41:33.631Z,100.00
2022-07-26T17:46:38.244Z,100.00
2022-07-26T17:51:41.570Z,100.00
2022-07-26T17:56:44.559Z,100.00
2022-07-26T18:01:50.398Z,100.00
2022-07-26T18:06:56.931Z,100.00
2022-07-26T18:11:59.914Z,100.00
2022-07-26T18:17:05.222Z,100.00
2022-07-26T18:22:08.330Z,100.00
2022-07-26T18:27:11.337Z,100.00
2022-07-26T18:32:16.245Z,100.00
2022-07-26T18:37:19.273Z,100.00
2022-07-26T18:42:22.240Z,100.00
2022-07-26T18:47:26.613Z,100.00
2022-07-26T18:52:32.558Z,100.00
2022-07-26T18:57:36.390Z,100.00
2022-07-26T19:02:40.743Z,100.00
2022-07-26T19:07:43.771Z,100.00
2022-07-26T19:12:48.440Z,100.00
2022-07-26T19:17:52.854Z,100.00
2022-07-26T19:22:55.861Z,100.00
2022-07-26T19:27:58.852Z,100.00
2022-07-26T19:33:03.143Z,100.00
2022-07-26T19:38:06.156Z,100.00
2022-07-26T19:43:09.508Z,100.00
2022-07-26T19:48:13.850Z,100.00
2022-07-26T19:53:19.103Z,100.00
2022-07-26T19:58:22.096Z,100.00
2022-07-26T20:03:31.388Z,100.00
2022-07-26T20:08:34.438Z,100.00
2022-07-26T20:13:37.444Z,100.00
2022-07-26T20:18:41.789Z,100.00
2022-07-26T20:23:44.789Z,100.00
2022-07-26T20:28:47.758Z,100.00
2022-07-26T20:33:54.572Z,100.00
2022-07-26T20:38:57.555Z,100.00
2022-07-26T20:44:00.570Z,100.00
2022-07-26T20:49:04.949Z,100.00
2022-07-26T20:54:08.660Z,100.00
2022-07-26T20:59:11.948Z,100.00
2022-07-26T21:04:16.465Z,100.00
2022-07-26T21:09:19.875Z,100.00
2022-07-26T21:14:25.156Z,100.00
2022-07-26T21:19:29.457Z,100.00
2022-07-26T21:24:32.508Z,100.00
2022-07-26T21:29:39.391Z,100.00
2022-07-26T21:34:43.917Z,100.00
2022-07-26T21:39:46.970Z,100.00
2022-07-26T21:44:49.974Z,100.00
2022-07-26T21:49:54.346Z,100.00
2022-07-26T21:54:57.298Z,100.00
2022-07-26T22:00:00.256Z,100.00
2022-07-26T22:05:24.738Z,100.00
2022-07-26T22:10:27.726Z,100.00
2022-07-26T22:15:30.841Z,100.00
2022-07-26T22:20:35.722Z,100.00
2022-07-26T22:25:39.412Z,100.00
2022-07-26T22:30:42.651Z,100.00
2022-07-26T22:35:46.962Z,100.00
2022-07-26T22:40:50.082Z,100.00
2022-07-26T22:45:53.098Z,100.00
2022-07-26T22:50:57.591Z,100.00
2022-07-26T22:56:00.587Z,100.00
2022-07-26T23:01:03.728Z,100.00
2022-07-26T23:06:15.994Z,100.00
2022-07-26T23:11:32.810Z,100.00
2022-07-26T23:16:35.921Z,100.00
2022-07-26T23:21:40.304Z,100.00
2022-07-26T23:26:43.325Z,100.00
2022-07-26T23:31:46.455Z,100.00
2022-07-26T23:36:50.884Z,100.00
2022-07-26T23:41:53.894Z,100.00
2022-07-26T23:46:57.001Z,100.00
2022-07-26T23:52:01.356Z,100.00
2022-07-26T23:57:04.503Z,100.00
